Time;durP1;ratioP1;P1;durP2;ratioP2;P2;SDS_P1;SDS_P2;PMS_P1;PMS_P2;Temp;Humidity;BMP_temperature;BMP_pressure;BME280_temperature;BME280_humidity;BME280_pressure;Samples;Min_cycle;Max_cycle;Signal;HPM_P1;HPM_P2
2023/10/24 00:00:14;;;;;;;;;;;9.00;99.90;;;;;;5068408;28;19920;-72
2023/10/24 00:02:39;;;;;;;;;;;9.10;99.90;;;;;;5047926;28;19943;-72
2023/10/24 00:05:05;;;;;;;;;;;9.20;99.90;;;;;;5040227;28;20663;-73
2023/10/24 00:07:31;;;;;;;;;;;9.10;99.90;;;;;;5045110;28;19916;-72
2023/10/24 00:09:56;;;;;;;;;;;9.10;99.90;;;;;;5042882;28;20002;-72
2023/10/24 00:12:22;;;;;;;;;;;9.10;99.90;;;;;;5053046;28;19913;-73
2023/10/24 00:14:48;;;;;;;;;;;9.20;99.90;;;;;;5046571;28;19985;-72
2023/10/24 00:17:13;;;;;;;;;;;9.20;99.90;;;;;;5047674;28;19915;-72
2023/10/24 00:19:39;;;;;;;;;;;9.00;99.80;;;;;;5043736;28;20438;-72
2023/10/24 00:22:05;;;;;;;;;;;9.10;99.90;;;;;;5046465;28;19916;-72
2023/10/24 00:24:30;;;;;;;;;;;9.30;99.90;;;;;;5049624;28;20627;-73
2023/10/24 00:26:57;;;;;;;;;;;9.30;99.90;;;;;;5051929;28;19913;-73
2023/10/24 00:29:23;;;;;;;;;;;9.40;99.90;;;;;;5047278;28;19916;-72
2023/10/24 00:31:48;;;;;;;;;;;9.40;99.90;;;;;;5041255;28;19928;-72
2023/10/24 00:34:14;;;;;;;;;;;9.50;99.90;;;;;;5044243;28;19998;-72
2023/10/24 00:36:40;;;;;;;;;;;9.40;99.90;;;;;;5051505;28;19916;-72
2023/10/24 00:39:06;;;;;;;;;;;9.50;99.90;;;;;;5043160;28;20004;-73
2023/10/24 00:41:32;;;;;;;;;;;9.50;99.70;;;;;;5040974;28;20015;-72
2023/10/24 00:43:57;;;;;;;;;;;9.40;99.60;;;;;;5045986;28;19916;-72
2023/10/24 00:46:23;;;;;;;;;;;9.40;99.60;;;;;;5049226;28;19963;-72
2023/10/24 00:48:49;;;;;;;;;;;9.50;99.60;;;;;;5042383;28;19917;-72
2023/10/24 00:51:15;;;;;;;;;;;9.50;99.50;;;;;;5045777;28;20658;-72
2023/10/24 00:53:41;;;;;;;;;;;9.50;99.40;;;;;;5043997;28;19920;-72
2023/10/24 00:56:06;;;;;;;;;;;9.40;99.60;;;;;;5050536;28;19917;-72
2023/10/24 00:58:33;;;;;;;;;;;9.40;99.60;;;;;;5048172;28;19919;-72
2023/10/24 01:00:59;;;;;;;;;;;9.40;99.60;;;;;;5044156;28;19963;-73
2023/10/24 01:03:25;;;;;;;;;;;9.30;99.70;;;;;;5049343;28;19962;-73
2023/10/24 01:05:51;;;;;;;;;;;9.60;99.80;;;;;;5039357;28;19959;-73
2023/10/24 01:08:17;;;;;;;;;;;9.60;99.60;;;;;;5046206;28;19951;-72
2023/10/24 01:10:42;;;;;;;;;;;9.70;99.60;;;;;;5044186;28;19920;-72
2023/10/24 01:13:08;;;;;;;;;;;9.60;99.40;;;;;;5042923;28;19916;-73
2023/10/24 01:15:33;;;;;;;;;;;9.40;99.70;;;;;;5047800;28;20062;-72
2023/10/24 01:17:59;;;;;;;;;;;9.50;99.80;;;;;;5046096;28;20027;-72
2023/10/24 01:20:24;;;;;;;;;;;9.60;99.80;;;;;;5046330;28;20032;-72
2023/10/24 01:22:50;;;;;;;;;;;9.60;99.80;;;;;;5050578;28;19955;-71
2023/10/24 01:25:16;;;;;;;;;;;9.50;99.80;;;;;;5049938;28;19952;-72
2023/10/24 01:27:42;;;;;;;;;;;9.50;99.70;;;;;;5043439;28;19924;-72
2023/10/24 01:30:09;;;;;;;;;;;9.50;99.70;;;;;;5048089;28;20434;-72
2023/10/24 01:32:34;;;;;;;;;;;9.30;99.70;;;;;;5054064;28;19929;-72
2023/10/24 01:35:00;;;;;;;;;;;9.30;99.80;;;;;;5049044;28;20331;-73
2023/10/24 01:37:26;;;;;;;;;;;9.40;99.80;;;;;;5050432;28;20688;-72
2023/10/24 01:39:51;;;;;;;;;;;9.50;99.80;;;;;;5050884;28;19913;-73
2023/10/24 01:42:17;;;;;;;;;;;9.40;99.70;;;;;;5056813;28;19961;-73
2023/10/24 01:44:42;;;;;;;;;;;9.50;99.80;;;;;;5056268;28;19921;-71
2023/10/24 01:47:08;;;;;;;;;;;9.50;99.70;;;;;;5055785;28;20444;-73
2023/10/24 01:49:33;;;;;;;;;;;9.50;99.60;;;;;;5054645;28;19912;-73
2023/10/24 01:51:59;;;;;;;;;;;9.50;99.70;;;;;;5052302;28;19927;-73
2023/10/24 01:54:24;;;;;;;;;;;9.50;99.40;;;;;;5054674;28;19909;-72
2023/10/24 01:56:50;;;;;;;;;;;9.50;99.40;;;;;;5041128;28;19940;-72
2023/10/24 01:59:15;;;;;;;;;;;9.50;99.60;;;;;;5054231;28;19912;-73
2023/10/24 02:01:41;;;;;;;;;;;9.50;99.60;;;;;;5050380;28;20622;-73
2023/10/24 02:04:06;;;;;;;;;;;9.50;99.50;;;;;;5047245;28;20375;-73
2023/10/24 02:06:32;;;;;;;;;;;9.60;99.50;;;;;;5050138;28;19956;-72
2023/10/24 02:08:57;;;;;;;;;;;9.50;99.40;;;;;;5050367;28;20402;-72
2023/10/24 02:11:23;;;;;;;;;;;9.50;99.50;;;;;;5051235;28;20015;-72
2023/10/24 02:13:48;;;;;;;;;;;9.50;99.40;;;;;;5048276;28;19916;-72
2023/10/24 02:16:14;;;;;;;;;;;9.50;99.40;;;;;;5047908;28;19909;-72
2023/10/24 02:18:39;;;;;;;;;;;9.50;99.40;;;;;;5051892;28;19919;-73
2023/10/24 02:21:06;;;;;;;;;;;9.40;99.40;;;;;;5050336;28;19919;-73
2023/10/24 02:23:32;;;;;;;;;;;9.40;99.60;;;;;;5047457;28;20396;-72
2023/10/24 02:25:58;;;;;;;;;;;9.20;99.50;;;;;;5047950;28;19917;-72
2023/10/24 02:28:23;;;;;;;;;;;9.30;99.70;;;;;;5045813;28;19955;-73
2023/10/24 02:30:49;;;;;;;;;;;9.20;99.60;;;;;;5047360;28;20338;-72
2023/10/24 02:33:14;;;;;;;;;;;9.20;99.80;;;;;;5039538;28;20370;-72
2023/10/24 02:35:40;;;;;;;;;;;9.20;99.80;;;;;;5053423;28;20551;-72
2023/10/24 02:38:06;;;;;;;;;;;9.10;99.70;;;;;;5052944;28;19917;-72
2023/10/24 02:40:31;;;;;;;;;;;9.00;99.70;;;;;;5042415;28;20011;-72
2023/10/24 02:42:57;;;;;;;;;;;9.00;99.70;;;;;;5054611;28;20353;-71
2023/10/24 02:45:23;;;;;;;;;;;8.60;99.70;;;;;;5047589;28;19924;-73
2023/10/24 02:47:48;;;;;;;;;;;8.60;99.90;;;;;;5046892;28;19931;-73
2023/10/24 02:50:14;;;;;;;;;;;8.60;99.90;;;;;;5054030;28;20379;-72
2023/10/24 02:52:40;;;;;;;;;;;8.70;99.90;;;;;;5047373;28;19955;-73
2023/10/24 02:55:06;;;;;;;;;;;8.80;99.90;;;;;;5055583;28;20260;-72
2023/10/24 02:57:31;;;;;;;;;;;8.90;99.90;;;;;;5052213;28;19963;-72
2023/10/24 02:59:57;;;;;;;;;;;8.80;99.90;;;;;;5052100;28;19924;-73
2023/10/24 03:02:22;;;;;;;;;;;8.70;99.90;;;;;;5073995;28;19960;-73
2023/10/24 03:04:48;;;;;;;;;;;8.60;99.90;;;;;;5051002;28;19923;-73
2023/10/24 03:07:13;;;;;;;;;;;8.70;99.90;;;;;;5050757;28;19927;-73
2023/10/24 03:09:39;;;;;;;;;;;8.60;99.90;;;;;;5078363;28;19955;-72
2023/10/24 03:12:09;;;;;;;;;;;8.70;99.90;;;;;;5053528;28;20289;-72
2023/10/24 03:14:35;;;;;;;;;;;8.80;99.90;;;;;;5046738;28;19920;-72
2023/10/24 03:17:01;;;;;;;;;;;8.80;99.90;;;;;;5047847;28;19912;-72
2023/10/24 03:19:27;;;;;;;;;;;8.80;99.90;;;;;;5053522;28;19913;-73
2023/10/24 03:21:53;;;;;;;;;;;8.80;99.90;;;;;;5055662;28;19916;-72
2023/10/24 03:24:18;;;;;;;;;;;8.80;99.90;;;;;;5047042;28;19939;-72
2023/10/24 03:26:44;;;;;;;;;;;8.90;99.90;;;;;;5045575;28;20568;-73
2023/10/24 03:29:09;;;;;;;;;;;8.90;99.90;;;;;;5047426;28;20650;-72
2023/10/24 03:31:38;;;;;;;;;;;9.00;99.90;;;;;;5047337;28;19913;-73
2023/10/24 03:34:03;;;;;;;;;;;9.00;99.90;;;;;;5049157;28;20433;-72
2023/10/24 03:36:29;;;;;;;;;;;9.00;99.90;;;;;;5039228;28;19917;-72
2023/10/24 03:38:54;;;;;;;;;;;9.10;99.90;;;;;;5074626;28;19917;-73
2023/10/24 03:41:20;;;;;;;;;;;9.00;99.90;;;;;;5047895;28;20394;-73
2023/10/24 03:43:48;;;;;;;;;;;9.10;99.90;;;;;;5078644;28;19920;-74
2023/10/24 03:46:14;;;;;;;;;;;9.10;99.90;;;;;;5042222;28;19915;-72
2023/10/24 03:48:40;;;;;;;;;;;9.20;99.90;;;;;;5045982;28;19921;-73
2023/10/24 03:51:06;;;;;;;;;;;9.10;99.90;;;;;;5045245;28;19905;-72
2023/10/24 03:53:31;;;;;;;;;;;9.00;99.90;;;;;;5047024;28;19913;-72
2023/10/24 03:55:58;;;;;;;;;;;9.00;99.90;;;;;;5051343;28;20752;-72
2023/10/24 03:58:24;;;;;;;;;;;9.10;99.90;;;;;;5045997;28;20284;-72
2023/10/24 04:00:50;;;;;;;;;;;9.10;99.90;;;;;;5045387;28;19916;-72
2023/10/24 04:03:15;;;;;;;;;;;9.20;99.90;;;;;;5041205;28;19956;-72
2023/10/24 04:05:41;;;;;;;;;;;9.20;99.90;;;;;;5047095;28;19922;-73
2023/10/24 04:08:07;;;;;;;;;;;9.10;99.90;;;;;;5042500;28;20514;-72
2023/10/24 04:10:34;;;;;;;;;;;9.00;99.90;;;;;;5049917;28;19936;-71
2023/10/24 04:12:59;;;;;;;;;;;8.80;99.90;;;;;;5043119;28;20007;-72
2023/10/24 04:15:25;;;;;;;;;;;8.80;99.90;;;;;;5044158;28;20003;-72
2023/10/24 04:17:51;;;;;;;;;;;8.70;99.90;;;;;;5044982;28;20116;-73
2023/10/24 04:20:16;;;;;;;;;;;8.80;99.90;;;;;;5053273;28;20385;-72
2023/10/24 04:22:42;;;;;;;;;;;8.80;99.90;;;;;;5050678;28;19962;-73
2023/10/24 04:25:08;;;;;;;;;;;8.80;99.90;;;;;;5047766;28;20467;-73
2023/10/24 04:27:33;;;;;;;;;;;8.90;99.90;;;;;;5048580;28;19925;-71
2023/10/24 04:29:59;;;;;;;;;;;8.80;99.90;;;;;;5051692;28;20019;-72
2023/10/24 04:32:25;;;;;;;;;;;8.80;99.90;;;;;;5047784;28;19987;-71
2023/10/24 04:34:51;;;;;;;;;;;8.80;99.90;;;;;;5043722;28;19913;-72
2023/10/24 04:37:19;;;;;;;;;;;8.80;99.90;;;;;;5041465;28;19912;-73
2023/10/24 04:39:45;;;;;;;;;;;8.70;99.90;;;;;;5043398;28;19947;-74
2023/10/24 04:42:10;;;;;;;;;;;8.80;99.90;;;;;;5042532;28;20493;-77
2023/10/24 04:44:36;;;;;;;;;;;8.70;99.90;;;;;;5044835;28;19949;-75
2023/10/24 04:47:01;;;;;;;;;;;8.70;99.90;;;;;;5049809;28;19916;-76
2023/10/24 04:49:27;;;;;;;;;;;8.60;99.90;;;;;;5049149;28;20627;-74
2023/10/24 04:51:53;;;;;;;;;;;8.60;99.90;;;;;;5046943;28;20598;-73
2023/10/24 04:54:18;;;;;;;;;;;8.70;99.90;;;;;;5078761;28;20307;-75
2023/10/24 04:56:43;;;;;;;;;;;8.80;99.90;;;;;;5043725;28;20334;-74
2023/10/24 04:59:09;;;;;;;;;;;8.80;99.90;;;;;;5046169;28;20377;-73
2023/10/24 05:01:37;;;;;;;;;;;8.80;99.90;;;;;;5037623;28;19916;-73
2023/10/24 05:04:04;;;;;;;;;;;8.80;99.90;;;;;;5038147;28;19923;-74
2023/10/24 05:06:29;;;;;;;;;;;8.70;99.90;;;;;;5044236;28;19917;-75
2023/10/24 05:08:55;;;;;;;;;;;8.70;99.90;;;;;;5045200;28;19967;-73
2023/10/24 05:11:20;;;;;;;;;;;8.70;99.90;;;;;;5048641;28;19923;-73
2023/10/24 05:13:46;;;;;;;;;;;8.70;99.90;;;;;;5040173;28;19917;-74
2023/10/24 05:16:12;;;;;;;;;;;8.70;99.90;;;;;;5042363;28;20457;-74
2023/10/24 05:18:37;;;;;;;;;;;8.70;99.90;;;;;;5048481;28;20375;-75
2023/10/24 05:21:03;;;;;;;;;;;8.70;99.90;;;;;;5050011;28;20641;-75
2023/10/24 05:23:29;;;;;;;;;;;8.50;99.90;;;;;;5073625;28;20414;-75
2023/10/24 05:25:55;;;;;;;;;;;8.50;99.90;;;;;;5050885;28;20355;-74
2023/10/24 05:28:21;;;;;;;;;;;8.50;99.90;;;;;;5045509;28;19921;-75
2023/10/24 05:30:46;;;;;;;;;;;8.60;99.90;;;;;;5043380;28;19981;-74
2023/10/24 05:33:12;;;;;;;;;;;8.60;99.90;;;;;;5044798;28;19924;-75
2023/10/24 05:35:37;;;;;;;;;;;8.60;99.90;;;;;;5071799;28;19917;-74
2023/10/24 05:38:03;;;;;;;;;;;8.60;99.90;;;;;;5046771;28;19921;-74
2023/10/24 05:40:28;;;;;;;;;;;8.60;99.90;;;;;;5049742;28;19920;-74
2023/10/24 05:42:54;;;;;;;;;;;8.60;99.90;;;;;;5053369;28;19912;-73
2023/10/24 05:45:22;;;;;;;;;;;8.60;99.90;;;;;;5048130;28;19971;-80
2023/10/24 05:47:47;;;;;;;;;;;8.60;99.90;;;;;;5050536;28;19927;-79
2023/10/24 05:50:13;;;;;;;;;;;8.40;99.90;;;;;;5046689;28;19917;-80
2023/10/24 05:52:38;;;;;;;;;;;8.50;99.90;;;;;;5045182;28;19909;-79
2023/10/24 05:55:04;;;;;;;;;;;8.50;99.90;;;;;;5050729;28;20542;-77
2023/10/24 05:57:30;;;;;;;;;;;8.40;99.90;;;;;;5049651;28;20567;-80
2023/10/24 05:59:55;;;;;;;;;;;8.50;99.90;;;;;;5049917;28;20007;-77
2023/10/24 06:02:21;;;;;;;;;;;8.50;99.90;;;;;;5050113;28;20310;-81
2023/10/24 06:04:46;;;;;;;;;;;8.60;99.90;;;;;;5049942;28;19920;-79
2023/10/24 06:07:13;;;;;;;;;;;8.70;99.90;;;;;;5053985;28;19955;-79
2023/10/24 06:09:39;;;;;;;;;;;8.70;99.90;;;;;;5049707;28;19966;-79
2023/10/24 06:12:05;;;;;;;;;;;8.70;99.90;;;;;;5048824;28;19908;-78
2023/10/24 06:14:32;;;;;;;;;;;8.80;99.90;;;;;;5045481;28;19956;-80
2023/10/24 06:16:58;;;;;;;;;;;8.80;99.90;;;;;;5075590;28;19948;-75
2023/10/24 06:19:23;;;;;;;;;;;8.90;99.90;;;;;;5048258;28;20366;-77
2023/10/24 06:21:49;;;;;;;;;;;8.90;99.90;;;;;;5051705;28;19912;-76
2023/10/24 06:24:15;;;;;;;;;;;8.90;99.90;;;;;;5043861;28;19995;-76
2023/10/24 06:26:40;;;;;;;;;;;9.00;99.90;;;;;;5047605;28;19960;-76
2023/10/24 06:29:06;;;;;;;;;;;9.00;99.90;;;;;;5045677;28;19971;-78
2023/10/24 06:31:31;;;;;;;;;;;9.10;99.90;;;;;;5051243;28;19927;-78
2023/10/24 06:33:59;;;;;;;;;;;9.10;99.90;;;;;;5055384;28;20011;-78
2023/10/24 06:36:25;;;;;;;;;;;9.00;99.90;;;;;;5046215;28;19955;-78
2023/10/24 06:38:51;;;;;;;;;;;9.00;99.90;;;;;;5048368;28;19956;-77
2023/10/24 06:41:17;;;;;;;;;;;9.00;99.90;;;;;;5049653;28;19966;-76
2023/10/24 06:43:43;;;;;;;;;;;9.10;99.90;;;;;;5051995;28;19955;-75
2023/10/24 06:46:08;;;;;;;;;;;9.20;99.90;;;;;;5057344;28;19958;-76
2023/10/24 06:48:34;;;;;;;;;;;9.00;99.90;;;;;;5071023;28;19920;-77
2023/10/24 06:50:59;;;;;;;;;;;9.10;99.90;;;;;;5063775;28;20007;-76
2023/10/24 06:53:25;;;;;;;;;;;9.10;99.90;;;;;;5062914;28;19924;-76
2023/10/24 06:55:50;;;;;;;;;;;9.10;99.90;;;;;;5062968;28;19913;-76
2023/10/24 06:58:16;;;;;;;;;;;9.10;99.90;;;;;;5051246;28;19923;-76
2023/10/24 07:00:43;;;;;;;;;;;9.10;99.90;;;;;;5051070;28;20000;-78
2023/10/24 07:03:08;;;;;;;;;;;9.20;99.90;;;;;;5041397;28;20037;-77
2023/10/24 07:05:34;;;;;;;;;;;9.30;99.90;;;;;;5058808;28;20623;-77
2023/10/24 07:07:59;;;;;;;;;;;9.20;99.90;;;;;;5051089;28;20011;-76
2023/10/24 07:10:25;;;;;;;;;;;9.10;99.90;;;;;;5051518;28;19923;-78
2023/10/24 07:12:50;;;;;;;;;;;9.20;99.90;;;;;;5047979;28;19916;-78
2023/10/24 07:15:16;;;;;;;;;;;9.20;99.90;;;;;;5048380;28;20687;-76
2023/10/24 07:17:42;;;;;;;;;;;9.40;99.90;;;;;;5052047;28;20294;-79
2023/10/24 07:20:08;;;;;;;;;;;9.30;99.90;;;;;;5057504;28;19908;-78
2023/10/24 07:22:34;;;;;;;;;;;9.50;99.90;;;;;;5049123;28;19916;-76
2023/10/24 07:24:59;;;;;;;;;;;9.50;99.90;;;;;;5051929;28;19917;-79
2023/10/24 07:27:25;;;;;;;;;;;9.20;99.90;;;;;;5052770;28;19924;-76
2023/10/24 07:29:50;;;;;;;;;;;9.40;99.90;;;;;;5055987;28;20363;-77
2023/10/24 07:32:16;;;;;;;;;;;9.40;99.90;;;;;;5051139;28;19921;-75
2023/10/24 07:34:41;;;;;;;;;;;9.50;99.90;;;;;;5050846;28;20291;-76
2023/10/24 07:37:08;;;;;;;;;;;9.50;99.90;;;;;;5053330;28;19932;-76
2023/10/24 07:39:34;;;;;;;;;;;9.40;99.90;;;;;;5051411;28;19912;-77
2023/10/24 07:42:00;;;;;;;;;;;9.40;99.90;;;;;;5053048;28;19917;-77
2023/10/24 07:44:25;;;;;;;;;;;9.50;99.90;;;;;;5054404;28;19939;-76
2023/10/24 07:46:52;;;;;;;;;;;9.50;99.90;;;;;;5048238;28;19912;-76
2023/10/24 07:49:17;;;;;;;;;;;9.50;99.90;;;;;;5051621;28;20517;-75
2023/10/24 07:51:43;;;;;;;;;;;9.60;99.90;;;;;;5054185;28;19938;-77
2023/10/24 07:54:10;;;;;;;;;;;9.60;99.90;;;;;;5053027;28;19908;-78
2023/10/24 07:56:37;;;;;;;;;;;9.70;99.80;;;;;;5081996;28;19921;-76
2023/10/24 07:59:04;;;;;;;;;;;9.70;99.50;;;;;;5046221;28;19912;-76
2023/10/24 08:01:29;;;;;;;;;;;9.80;99.30;;;;;;5050708;28;19913;-78
2023/10/24 08:03:55;;;;;;;;;;;9.90;99.30;;;;;;5050077;28;19966;-75
2023/10/24 08:06:20;;;;;;;;;;;9.80;99.30;;;;;;5051926;28;19954;-76
2023/10/24 08:08:46;;;;;;;;;;;9.80;99.20;;;;;;5049001;28;19928;-78
2023/10/24 08:11:11;;;;;;;;;;;9.80;99.00;;;;;;5046837;28;19916;-77
2023/10/24 08:13:37;;;;;;;;;;;9.80;98.90;;;;;;5052153;28;20334;-77
2023/10/24 08:16:03;;;;;;;;;;;9.80;99.00;;;;;;5050558;28;19922;-79
2023/10/24 08:18:28;;;;;;;;;;;9.90;98.90;;;;;;5051277;28;19912;-78
2023/10/24 08:20:54;;;;;;;;;;;9.90;98.90;;;;;;5048420;28;19921;-75
2023/10/24 08:23:20;;;;;;;;;;;10.10;99.00;;;;;;5050013;28;19917;-76
2023/10/24 08:25:45;;;;;;;;;;;10.20;98.70;;;;;;5050259;28;19923;-76
2023/10/24 08:28:11;;;;;;;;;;;10.20;98.70;;;;;;5051628;28;19917;-77
2023/10/24 08:30:37;;;;;;;;;;;10.30;98.60;;;;;;5052920;28;19916;-75
2023/10/24 08:33:02;;;;;;;;;;;10.20;98.50;;;;;;5051834;28;19991;-75
2023/10/24 08:35:28;;;;;;;;;;;10.10;98.60;;;;;;5050270;28;19920;-75
2023/10/24 08:37:54;;;;;;;;;;;10.20;98.50;;;;;;5055169;28;19913;-75
2023/10/24 08:40:20;;;;;;;;;;;10.20;98.60;;;;;;5049198;28;20319;-77
2023/10/24 08:42:45;;;;;;;;;;;10.30;98.70;;;;;;5051128;28;19954;-75
2023/10/24 08:45:13;;;;;;;;;;;10.40;98.30;;;;;;5049600;28;19919;-76
2023/10/24 08:47:41;;;;;;;;;;;10.40;98.30;;;;;;5049656;28;19967;-76
2023/10/24 08:50:07;;;;;;;;;;;10.50;98.40;;;;;;5050763;28;19919;-76
2023/10/24 08:52:32;;;;;;;;;;;10.50;98.30;;;;;;5050114;28;19909;-75
2023/10/24 08:55:00;;;;;;;;;;;10.40;98.50;;;;;;5049958;28;20378;-75
2023/10/24 08:57:27;;;;;;;;;;;10.40;98.50;;;;;;5047215;28;19919;-75
2023/10/24 08:59:54;;;;;;;;;;;10.40;98.70;;;;;;5045738;28;19908;-77
2023/10/24 09:02:21;;;;;;;;;;;10.40;98.70;;;;;;5046482;28;19950;-77
2023/10/24 09:04:47;;;;;;;;;;;10.40;98.90;;;;;;5044920;28;19947;-74
2023/10/24 09:07:13;;;;;;;;;;;10.40;99.00;;;;;;5053251;28;19908;-76
2023/10/24 09:09:38;;;;;;;;;;;10.50;99.10;;;;;;5049185;28;19917;-75
2023/10/24 09:12:05;;;;;;;;;;;10.50;99.30;;;;;;5047808;28;20012;-74
2023/10/24 09:14:30;;;;;;;;;;;10.60;99.10;;;;;;5048755;28;19913;-73
2023/10/24 09:17:05;;;;;;;;;;;11.50;99.90;;;;;;5042601;28;19966;-74
2023/10/24 09:19:32;;;;;;;;;;;11.50;99.90;;;;;;5049679;28;19919;-76
2023/10/24 09:21:58;;;;;;;;;;;11.50;99.90;;;;;;5045367;28;19920;-77
2023/10/24 09:24:24;;;;;;;;;;;12.30;99.90;;;;;;5052399;28;20606;-75
2023/10/24 09:26:54;;;;;;;;;;;12.40;99.90;;;;;;5051876;28;19992;-74
2023/10/24 09:29:20;;;;;;;;;;;12.40;99.90;;;;;;5054133;28;19963;-74
2023/10/24 09:31:49;;;;;;;;;;;12.30;99.90;;;;;;5050338;28;19913;-76
2023/10/24 09:34:16;;;;;;;;;;;12.10;99.90;;;;;;5053043;28;20501;-73
2023/10/24 09:36:42;;;;;;;;;;;12.00;99.90;;;;;;5043101;28;20007;-79
2023/10/24 09:39:11;;;;;;;;;;;12.00;99.90;;;;;;5053817;28;20015;-77
2023/10/24 09:41:44;;;;;;;;;;;11.90;99.90;;;;;;5053369;28;19993;-76
2023/10/24 09:44:10;;;;;;;;;;;11.90;99.90;;;;;;5046906;28;19956;-83
2023/10/24 09:46:36;;;;;;;;;;;11.80;99.90;;;;;;5074240;28;19956;-75
2023/10/24 09:49:03;;;;;;;;;;;11.80;99.90;;;;;;5052474;28;19965;-77
2023/10/24 09:51:31;;;;;;;;;;;11.70;99.90;;;;;;5049159;28;19921;-74
2023/10/24 09:53:57;;;;;;;;;;;11.80;99.90;;;;;;5052136;28;19927;-75
2023/10/24 09:56:23;;;;;;;;;;;11.50;99.90;;;;;;5049931;28;20400;-72
2023/10/24 09:58:49;;;;;;;;;;;11.70;99.90;;;;;;5043616;28;19913;-73
2023/10/24 10:01:14;;;;;;;;;;;11.60;99.90;;;;;;5051663;28;19920;-73
2023/10/24 10:03:40;;;;;;;;;;;11.60;99.90;;;;;;5048076;28;19916;-73
2023/10/24 10:06:08;;;;;;;;;;;11.50;99.90;;;;;;5085079;28;19916;-72
2023/10/24 10:08:37;;;;;;;;;;;11.50;99.90;;;;;;5050942;28;19912;-73
2023/10/24 10:11:06;;;;;;;;;;;11.60;99.90;;;;;;5048308;28;19912;-73
2023/10/24 10:13:35;;;;;;;;;;;11.60;99.90;;;;;;5050897;28;19976;-73
2023/10/24 10:16:06;;;;;;;;;;;11.70;99.90;;;;;;5059642;28;19921;-74
2023/10/24 10:18:44;;;;;;;;;;;11.80;99.90;;;;;;5052071;28;19962;-72
2023/10/24 10:21:20;;;;;;;;;;;11.80;99.90;;;;;;5051647;28;19959;-73
2023/10/24 10:23:57;;;;;;;;;;;11.80;99.90;;;;;;5050806;28;19915;-74
2023/10/24 10:26:46;;;;;;;;;;;11.70;99.90;;;;;;5052111;28;19991;-72
2023/10/24 10:29:23;;;;;;;;;;;11.80;99.90;;;;;;5049570;28;19970;-73
2023/10/24 10:31:54;;;;;;;;;;;11.70;99.90;;;;;;5055359;28;19916;-72
2023/10/24 10:34:30;;;;;;;;;;;11.80;99.90;;;;;;5051453;28;19917;-71
2023/10/24 10:36:56;;;;;;;;;;;11.90;99.90;;;;;;5046152;28;19920;-80
2023/10/24 10:39:22;;;;;;;;;;;11.60;99.90;;;;;;5054066;28;19971;-81
2023/10/24 10:42:07;;;;;;;;;;;11.80;99.90;;;;;;5040126;28;19963;-81
2023/10/24 10:44:38;;;;;;;;;;;11.70;99.90;;;;;;5069555;28;19972;-81
2023/10/24 10:47:05;;;;;;;;;;;11.70;99.90;;;;;;5064242;28;19944;-77
2023/10/24 10:49:47;;;;;;;;;;;11.50;99.90;;;;;;5061737;28;19912;-77
2023/10/24 10:52:18;;;;;;;;;;;11.70;99.90;;;;;;5056785;28;20273;-80
2023/10/24 10:54:48;;;;;;;;;;;11.70;99.90;;;;;;5051940;28;19966;-82
2023/10/24 10:57:17;;;;;;;;;;;11.80;99.90;;;;;;5051353;28;19912;-81
2023/10/24 10:59:57;;;;;;;;;;;11.80;99.90;;;;;;5054346;28;19908;-78
2023/10/24 11:02:32;;;;;;;;;;;11.80;99.90;;;;;;5054107;28;19930;-74
2023/10/24 11:04:57;;;;;;;;;;;11.50;99.90;;;;;;5051412;28;19932;-76
2023/10/24 11:07:42;;;;;;;;;;;11.60;99.90;;;;;;5050813;28;19928;-75
2023/10/24 11:10:14;;;;;;;;;;;11.60;99.90;;;;;;5054765;28;19913;-75
2023/10/24 11:12:46;;;;;;;;;;;11.80;99.90;;;;;;5046835;28;19921;-75
2023/10/24 11:15:32;;;;;;;;;;;11.80;99.90;;;;;;5051603;28;19912;-77
2023/10/24 11:17:58;;;;;;;;;;;11.70;99.90;;;;;;5051831;28;19920;-78
2023/10/24 11:20:24;;;;;;;;;;;11.60;99.90;;;;;;5055338;28;19921;-75
2023/10/24 11:22:50;;;;;;;;;;;11.60;99.90;;;;;;5054759;28;20356;-75
2023/10/24 11:25:16;;;;;;;;;;;11.70;99.90;;;;;;5051787;28;20447;-75
2023/10/24 11:27:42;;;;;;;;;;;11.80;99.90;;;;;;5052418;28;19912;-77
2023/10/24 11:30:08;;;;;;;;;;;11.80;99.90;;;;;;5056327;28;20367;-75
2023/10/24 11:32:34;;;;;;;;;;;11.70;99.90;;;;;;5048852;28;19995;-75
2023/10/24 11:35:00;;;;;;;;;;;11.70;99.90;;;;;;5051161;28;20019;-74
2023/10/24 11:37:27;;;;;;;;;;;11.70;99.90;;;;;;5044206;28;19914;-75
2023/10/24 11:39:53;;;;;;;;;;;11.80;99.90;;;;;;5052529;28;20000;-76
2023/10/24 11:42:18;;;;;;;;;;;12.00;99.90;;;;;;5048339;28;20010;-74
2023/10/24 11:44:44;;;;;;;;;;;11.90;99.90;;;;;;5052143;28;20015;-78
2023/10/24 11:47:19;;;;;;;;;;;11.90;99.90;;;;;;5054669;28;20299;-77
2023/10/24 11:49:47;;;;;;;;;;;12.00;99.90;;;;;;5048645;28;19921;-81
2023/10/24 11:52:13;;;;;;;;;;;12.00;99.90;;;;;;5049936;28;19912;-79
2023/10/24 11:54:39;;;;;;;;;;;12.00;99.90;;;;;;5054644;28;19965;-79
2023/10/24 11:57:05;;;;;;;;;;;11.90;99.90;;;;;;5049629;28;19917;-81
2023/10/24 11:59:33;;;;;;;;;;;11.90;99.90;;;;;;5045622;28;19999;-81
2023/10/24 12:02:00;;;;;;;;;;;11.70;99.90;;;;;;5041914;28;19912;-81
2023/10/24 12:04:26;;;;;;;;;;;11.80;99.90;;;;;;5041794;28;19909;-78
2023/10/24 12:07:05;;;;;;;;;;;11.90;99.90;;;;;;5044644;28;20290;-78
2023/10/24 12:09:31;;;;;;;;;;;11.90;99.90;;;;;;5053851;28;19931;-74
2023/10/24 12:11:57;;;;;;;;;;;11.90;99.90;;;;;;5048168;28;20019;-75
2023/10/24 12:14:22;;;;;;;;;;;12.00;99.90;;;;;;5050103;28;20004;-76
2023/10/24 12:16:48;;;;;;;;;;;12.10;99.90;;;;;;5048533;28;20642;-76
2023/10/24 12:19:14;;;;;;;;;;;11.90;99.90;;;;;;5051037;28;19959;-75
2023/10/24 12:21:39;;;;;;;;;;;12.00;99.90;;;;;;5052314;28;19970;-74
2023/10/24 12:24:05;;;;;;;;;;;11.90;99.90;;;;;;5049442;28;20374;-75
2023/10/24 12:26:30;;;;;;;;;;;11.90;99.90;;;;;;5047431;28;19913;-74
2023/10/24 12:28:56;;;;;;;;;;;11.90;99.90;;;;;;5054470;28;20287;-75
2023/10/24 12:31:22;;;;;;;;;;;12.00;99.90;;;;;;5050734;28;19917;-75
2023/10/24 12:33:48;;;;;;;;;;;12.20;99.90;;;;;;5048853;28;19952;-77
2023/10/24 12:36:15;;;;;;;;;;;12.30;99.90;;;;;;5051874;28;19916;-76
2023/10/24 12:38:41;;;;;;;;;;;12.20;99.90;;;;;;5046986;28;19958;-76
2023/10/24 12:41:06;;;;;;;;;;;12.20;99.90;;;;;;5049352;28;19912;-78
2023/10/24 12:43:33;;;;;;;;;;;12.10;99.90;;;;;;5046280;28;19919;-78
2023/10/24 12:45:58;;;;;;;;;;;12.10;99.90;;;;;;5046976;28;19920;-78
2023/10/24 12:48:24;;;;;;;;;;;12.20;99.90;;;;;;5050610;28;20408;-78
2023/10/24 12:50:50;;;;;;;;;;;12.40;99.90;;;;;;5052780;28;19943;-79
2023/10/24 12:53:15;;;;;;;;;;;12.60;99.90;;;;;;5051041;28;19916;-83
2023/10/24 12:55:41;;;;;;;;;;;12.90;99.90;;;;;;5047852;28;19909;-79
2023/10/24 12:58:06;;;;;;;;;;;12.90;99.90;;;;;;5051700;28;19915;-78
2023/10/24 13:00:32;;;;;;;;;;;12.80;99.90;;;;;;5048563;28;19919;-80
2023/10/24 13:02:58;;;;;;;;;;;12.60;99.90;;;;;;5048693;28;19938;-79
2023/10/24 13:05:23;;;;;;;;;;;12.50;99.90;;;;;;5053624;28;19981;-78
2023/10/24 13:07:49;;;;;;;;;;;12.40;99.90;;;;;;5045205;28;19964;-77
2023/10/24 13:10:15;;;;;;;;;;;12.50;99.90;;;;;;5047088;28;19923;-80
2023/10/24 13:12:41;;;;;;;;;;;12.60;99.90;;;;;;5048668;28;20375;-78
2023/10/24 13:15:07;;;;;;;;;;;12.80;99.90;;;;;;5051572;28;19913;-77
2023/10/24 13:17:32;;;;;;;;;;;12.90;99.90;;;;;;5049076;28;20354;-76
2023/10/24 13:19:58;;;;;;;;;;;12.80;99.90;;;;;;5045714;28;20817;-77
2023/10/24 13:22:23;;;;;;;;;;;12.70;99.90;;;;;;5049382;28;19920;-77
2023/10/24 13:24:49;;;;;;;;;;;12.40;99.90;;;;;;5051827;28;19935;-78
2023/10/24 13:27:15;;;;;;;;;;;12.30;99.90;;;;;;5049108;28;20003;-79
2023/10/24 13:29:40;;;;;;;;;;;12.30;99.90;;;;;;5044093;28;20571;-78
2023/10/24 13:32:06;;;;;;;;;;;12.40;99.90;;;;;;5046754;28;19913;-76
2023/10/24 13:34:31;;;;;;;;;;;12.50;99.90;;;;;;5047166;28;20003;-78
2023/10/24 13:36:57;;;;;;;;;;;12.60;99.90;;;;;;5041710;28;19956;-79
2023/10/24 13:39:22;;;;;;;;;;;12.70;99.90;;;;;;5040919;28;20371;-78
2023/10/24 13:41:48;;;;;;;;;;;12.60;99.90;;;;;;5045497;28;19994;-78
2023/10/24 13:44:14;;;;;;;;;;;12.70;99.90;;;;;;5046730;28;19916;-77
2023/10/24 13:46:39;;;;;;;;;;;12.90;99.90;;;;;;5050824;28;19920;-77
2023/10/24 13:49:05;;;;;;;;;;;12.80;99.90;;;;;;5048582;28;19924;-78
2023/10/24 13:51:31;;;;;;;;;;;12.90;99.90;;;;;;5054462;28;20387;-80
2023/10/24 13:53:57;;;;;;;;;;;13.00;99.90;;;;;;5053598;28;19978;-78
2023/10/24 13:56:23;;;;;;;;;;;12.90;99.90;;;;;;5054188;28;19912;-78
2023/10/24 13:58:48;;;;;;;;;;;12.90;99.90;;;;;;5045056;28;20454;-79
2023/10/24 14:01:14;;;;;;;;;;;12.60;99.90;;;;;;5047469;28;19921;-79
2023/10/24 14:03:40;;;;;;;;;;;12.60;99.90;;;;;;5044399;28;20434;-79
2023/10/24 14:06:06;;;;;;;;;;;12.70;99.90;;;;;;5052008;28;19913;-78
2023/10/24 14:08:32;;;;;;;;;;;12.80;99.90;;;;;;5051198;28;19936;-78
2023/10/24 14:10:57;;;;;;;;;;;12.50;99.90;;;;;;5063942;28;20358;-80
2023/10/24 14:13:23;;;;;;;;;;;12.30;99.90;;;;;;5064651;28;19920;-78
2023/10/24 14:15:48;;;;;;;;;;;12.30;99.90;;;;;;5046442;28;19974;-76
2023/10/24 14:18:15;;;;;;;;;;;12.20;99.90;;;;;;5059386;28;19966;-77